CLYO2: Little River nr Cloudy 5ENE

Data processed at Wed May 22 2019 23:30


All information presented herein is the property of the government of the United States of America and may be revised or deleted at any time without prior notice.
Dissemination of this information without the expressed written consent of the Public Affairs Office, Tulsa District U.S. Army Corps of Engineers is strictly prohibited.
These data are gathered electronically and, as presented, have not undergone any form of quality control. These data are not guaranteed to be valid or correct.
Go to home page.
Go to station list.
Go to home page.

Downstream station:


Previous Day
Next Day
Current Day
    
SHEF ID:       CLYO2     Little River nr Cloudy 5ENE
STATION TYPE:  

               PRECIP     STAGE  RIV-FLOW   VOLTAGE  BAT-LOAD
                   in        ft       cfs      volt      volt
              Ccp-Rev   Ccp-Rev   Ccp-Rev   Ccp-Rev   Ccp-Rev
(US/Central)
05/22 00:00      0.00      5.81      1235     12.65     12.65
05/22 01:00      0.00      5.91      1301     12.65     12.60
05/22 02:00      0.00      5.96      1334     12.65     12.60
05/22 03:00      0.00      5.98      1347     12.60     12.60
05/22 04:00      0.00      5.96      1334     12.60     12.54
05/22 05:00      0.00      5.92      1307     12.60     12.54
05/22 06:00      0.00      5.89      1288     12.60     12.54
05/22 07:00      0.00      5.89      1288     12.60     12.48
05/22 08:00      0.00      5.85      1261     12.60     12.48
05/22 09:00      0.00      5.88      1281     13.18     12.48
05/22 10:00      0.00      5.93      1314     13.71     13.18
05/22 11:00      0.00      5.96      1334     13.59     13.65
05/22 12:00      0.00      6.00      1360     13.53     13.48
05/22 13:00      0.00      6.01      1367     13.53     13.53
05/22 14:00      0.00      6.01      1367     14.06     13.65
05/22 15:00      0.00      6.01      1367     13.65     13.30
05/22 16:00      0.00      5.97      1340     13.53     13.36
05/22 17:00      0.00      5.95      1327     14.00     13.36
05/22 18:00      0.00      5.92      1307     13.48     13.36
05/22 19:00      0.00      5.90      1294     13.30     13.30
05/22 20:00      0.00      5.86      1268     13.00     13.18
05/22 21:00      0.00      5.83      1248     12.83     12.89
05/22 22:00      0.00      5.80      1228     12.77     12.71
05/22 23:00      0.00      5.75      1195     12.71     12.71